Latest Weather Observations for Ernabella/Pukatja

IDD60801

Issued at 3:31 am CST Tuesday 28 March 2017 (issued every 30 minutes, with the page automatically refreshed every 10 minutes)

About weather observations | Map of weather stations | Latest weather observations for NT | Other Formats
Station Details ID: 016097 Name: PUKATJA Lat: -26.26 Lon: 132.18 Height: 703.2 m
Data from the previous 72 hours. | See also: Recent months at Ernabella/Pukatja
Date/Time
CST
Temp
°C
App
Temp
°C
Dew
Point
°C
Rel
Hum
%
Delta-T
°C
Wind Press
QNH
hPa
Press
MSL
hPa
Rain since
9am
mm
Dir  Spd
km/h
Gust
km/h
Spd
kts
Gust
kts
28/03:30am 22.1 17.9 5.9 35 8.4 SSE 17 15 9 8 1017.1 1012.8 -
28/03:00am 22.2 18.2 6.8 37 8.2 ESE 17 24 9 13 1017.5 1013.2 0.0
28/02:30am 22.5 19.3 6.7 36 8.4 SE 13 22 7 12 1017.7 1013.4 0.0
28/02:00am 22.8 19.6 7.0 36 8.4 SE 13 22 7 12 1018.1 1013.9 0.0
28/01:30am 22.9 19.8 7.4 37 8.3 SE 13 20 7 11 1018.3 1014.1 0.0
28/01:00am 23.0 20.0 7.9 38 8.2 SE 13 20 7 11 1018.3 1014.1 0.0
28/12:30am 23.2 19.1 7.7 37 8.4 SE 19 28 10 15 1018.7 1014.4 0.0
28/12:00am 23.3 20.4 8.2 38 8.3 SE 13 20 7 11 1018.6 1014.3 0.0
 
Date/Time
CST
Temp
°C
App
Temp
°C
Dew
Point
°C
Rel
Hum
%
Delta-T
°C
Wind Press
QNH
hPa
Press
MSL
hPa
Rain since
9am
mm
Dir  Spd
km/h
Gust
km/h
Spd
kts
Gust
kts
27/11:30pm 23.5 19.9 8.4 38 8.3 SE 17 28 9 15 1018.6 1014.3 0.0
27/11:00pm 23.5 20.1 9.1 40 8.0 SSE 17 28 9 15 1018.7 1014.4 0.0
27/10:30pm 23.8 19.9 9.4 40 8.1 SSE 20 32 11 17 1018.6 1014.3 0.0
27/10:00pm 24.3 21.1 9.8 40 8.2 SSE 17 22 9 12 1018.3 1014.1 0.0
27/09:30pm 24.7 21.6 10.2 40 8.3 SSE 17 26 9 14 1018.1 1013.9 0.0
27/09:00pm 25.1 20.3 10.2 39 8.5 S 26 43 14 23 1017.8 1013.5 0.0
27/08:30pm 25.5 20.0 10.5 39 8.6 S 30 41 16 22 1017.3 1013.0 0.0
27/08:00pm 25.9 20.9 10.9 39 8.7 S 28 37 15 20 1017.3 1013.0 0.0
27/07:30pm 26.8 23.7 12.1 40 8.7 SSE 20 30 11 16 1016.8 1012.6 0.0
27/07:00pm 27.4 24.4 12.6 40 8.9 SSE 20 28 11 15 1016.6 1012.4 0.0
27/06:30pm 27.8 24.1 12.6 39 9.1 SSE 24 35 13 19 1016.3 1012.0 0.0
27/06:00pm 28.4 23.8 12.3 37 9.7 S 28 41 15 22 1016.0 1011.7 0.0
27/05:30pm 29.4 25.9 12.3 34 10.3 SSE 22 35 12 19 1016.1 1011.8 0.0
27/05:00pm 29.8 25.7 12.7 35 10.4 S 26 41 14 22 1016.1 1011.8 0.0
27/04:30pm 29.7 24.9 13.0 35 10.2 S 30 43 16 23 1015.9 1011.6 0.0
27/04:00pm 30.3 26.1 13.6 36 10.3 S 28 44 15 24 1015.9 1011.6 0.0
27/03:30pm 30.8 26.2 13.6 35 10.6 S 30 43 16 23 1015.7 1011.4 0.0
27/03:00pm 29.9 25.0 13.6 36 10.0 S 32 44 17 24 1015.8 1011.5 0.0
27/02:30pm 30.1 25.2 13.8 37 10.1 S 32 43 17 23 1016.1 1011.8 0.0
27/02:00pm 30.4 25.6 14.5 38 9.9 S 33 44 18 24 1016.2 1011.9 0.0
27/01:30pm 30.0 25.4 14.5 38 9.7 SSE 32 44 17 24 1016.4 1012.1 0.0
27/01:00pm 29.2 25.4 14.6 41 9.1 SSW 28 50 15 27 1016.8 1012.6 0.0
27/12:59pm 28.8 25.3 14.6 42 8.8 SSW 26 50 14 27 1016.8 1012.6 0.0
27/12:30pm 29.0 25.2 14.8 42 8.9 S 28 43 15 23 1017.2 1012.9 0.0
27/12:00pm 29.2 27.1 15.3 42 8.8 SSW 20 39 11 21 1017.3 1013.0 0.0
27/11:30am 28.2 25.7 15.1 44 8.2 SSW 22 35 12 19 1017.6 1013.3 0.0
27/11:00am 27.2 23.5 14.9 47 7.6 SSW 28 43 15 23 1017.7 1013.4 0.0
27/10:30am 26.9 23.6 15.0 48 7.4 SSW 26 37 14 20 1017.7 1013.4 0.0
27/10:00am 25.9 24.1 15.9 54 6.3 SSW 20 39 11 21 1017.6 1013.3 0.0
27/09:30am 25.6 24.3 15.9 55 6.1 SSW 17 35 9 19 1017.6 1013.3 0.0
27/09:00am 24.9 23.2 16.3 59 5.4 SW 20 39 11 21 1017.3 1013.0 0.0
27/08:30am 23.9 22.8 16.4 63 4.7 SW 17 30 9 16 1017.0 1012.7 0.0
27/08:00am 23.3 22.0 16.8 67 4.1 SSW 19 30 10 16 1016.6 1012.4 0.0
27/07:40am 23.1 20.1 16.9 68 3.9 SSW 28 48 15 26 1016.4 1012.1 0.0
27/07:30am 23.1 19.8 17.1 69 3.8 SSW 30 44 16 24 1016.3 1012.0 0.0
27/07:00am 23.0 21.8 17.0 69 3.8 SW 19 32 10 17 1016.2 1011.9 0.0
27/06:30am 23.3 21.6 17.3 69 3.8 SW 22 35 12 19 1015.6 1011.3 0.0
27/06:00am 24.3 20.3 17.5 66 4.4 S 35 54 19 29 1015.2 1011.0 0.0
27/05:32am 25.5 20.6 17.2 60 5.3 SSW 39 57 21 31 1014.3 1010.0 0.0
27/05:30am 25.8 20.7 16.9 58 5.7 SSW 39 54 21 29 1014.3 1010.0 0.0
27/05:12am 26.9 22.8 15.0 48 7.4 SSW 30 50 16 27 1014.2 1009.9 0.0
27/05:00am 27.8 22.0 10.9 35 9.9 SSW 32 48 17 26 1014.2 1009.9 0.0
27/04:30am 29.1 21.4 8.7 28 11.6 SSW 39 56 21 30 1013.4 1009.1 0.0
27/04:06am 30.7 24.8 9.0 26 12.5 SSW 30 56 16 30 1012.8 1008.5 0.0
27/04:00am 30.0 24.7 6.6 23 12.9 SW 24 33 13 18 1012.9 1008.6 0.0
27/03:30am 25.6 23.8 8.1 33 9.7 ENE 7 9 4 5 1012.2 1007.9 0.0
27/03:00am 25.9 25.4 8.0 32 9.9 CALM 0 0 0 0 1012.4 1008.0 0.0
27/02:30am 26.3 25.8 7.8 31 10.2 CALM 0 4 0 2 1012.6 1008.2 0.0
27/02:00am 25.7 24.7 7.3 31 10.0 SW 2 6 1 3 1012.8 1008.5 0.0
27/01:30am 27.7 24.7 5.9 25 11.8 SW 11 11 6 6 1012.9 1008.6 0.0
27/01:00am 27.1 25.8 7.5 29 10.8 NW 4 9 2 5 1013.1 1008.8 0.0
27/12:30am 27.6 25.6 6.9 27 11.3 SW 7 7 4 4 1013.1 1008.8 0.0
27/12:00am 28.5 27.8 7.1 26 11.8 CALM 0 0 0 0 1013.2 1008.9 0.0
 
Date/Time
CST
Temp
°C
App
Temp
°C
Dew
Point
°C
Rel
Hum
%
Delta-T
°C
Wind Press
QNH
hPa
Press
MSL
hPa
Rain since
9am
mm
Dir  Spd
km/h
Gust
km/h
Spd
kts
Gust
kts
26/11:30pm 28.6 28.0 7.2 26 11.8 CALM 0 0 0 0 1013.3 1009.0 0.0
26/11:00pm 28.3 27.7 7.5 27 11.6 CALM 0 0 0 0 1013.4 1009.1 0.0
26/10:30pm 29.3 27.6 8.4 27 11.8 E 7 9 4 5 1013.4 1009.1 0.0
26/10:00pm 29.8 27.9 7.7 25 12.4 ENE 7 9 4 5 1013.4 1009.1 0.0
26/09:30pm 29.8 29.3 7.7 25 12.4 CALM 0 0 0 0 1013.2 1008.9 0.0
26/09:00pm 30.5 30.0 7.7 24 12.8 CALM 0 0 0 0 1012.8 1008.5 0.0
26/08:30pm 30.7 30.1 7.2 23 13.1 CALM 0 0 0 0 1012.4 1008.0 0.0
26/08:00pm 31.6 30.5 5.2 19 14.4 CALM 0 0 0 0 1011.9 1007.6 0.0
26/07:30pm 32.3 30.8 5.0 18 14.9 WSW 2 7 1 4 1011.5 1007.2 0.0
26/07:00pm 34.2 31.3 4.8 16 16.1 NW 9 11 5 6 1011.1 1006.7 0.0
26/06:30pm 36.8 33.8 3.9 13 18.0 WNW 9 15 5 8 1010.7 1006.4 0.0
26/06:00pm 37.9 33.7 3.6 12 18.8 NNW 15 20 8 11 1010.5 1006.2 0.0
26/05:30pm 38.6 34.6 2.9 11 19.4 WNW 13 17 7 9 1010.3 1006.0 0.0
26/05:00pm 38.9 34.2 3.1 11 19.6 NNW 17 33 9 18 1010.2 1005.9 0.0
26/04:30pm 39.0 34.3 3.2 11 19.6 N 17 30 9 16 1010.3 1006.0 0.0
26/04:00pm 38.6 34.0 1.6 10 19.7 N 15 24 8 13 1010.3 1006.0 0.0
26/03:30pm 39.6 34.9 0.9 9 20.6 NNW 15 22 8 12 1010.4 1006.1 0.0
26/03:00pm 38.8 33.9 1.7 10 19.8 NNW 17 30 9 16 1010.5 1006.2 0.0
26/02:30pm 38.7 33.4 1.6 10 19.8 NNW 19 35 10 19 1010.6 1006.3 0.0
26/02:00pm 39.4 34.4 3.5 11 19.8 NNW 19 30 10 16 1011.1 1006.7 0.0
26/01:30pm 39.3 34.6 3.4 11 19.8 N 17 32 9 17 1011.3 1006.9 0.0
26/01:00pm 38.2 32.8 2.6 11 19.2 NNW 20 35 11 19 1011.9 1007.6 0.0
26/12:30pm 37.8 32.8 3.5 12 18.8 N 19 30 10 16 1012.5 1008.1 0.0
26/12:00pm 38.9 34.5 6.6 14 18.6 NE 19 26 10 14 1012.8 1008.5 0.0
26/11:30am 36.7 32.2 6.8 16 17.1 NNE 20 33 11 18 1013.1 1008.8 0.0
26/11:00am 36.0 31.0 8.0 18 16.2 N 24 35 13 19 1013.3 1009.0 0.0
26/10:30am 36.2 32.0 8.1 18 16.3 NE 20 32 11 17 1013.5 1009.2 0.0
26/10:00am 34.5 30.7 5.9 17 16.0 NE 15 22 8 12 1013.9 1009.5 0.0
26/09:30am 33.7 30.4 4.4 16 15.9 ENE 11 17 6 9 1014.1 1009.8 0.0
26/09:00am 32.0 28.8 3.1 16 15.2 ENE 9 9 5 5 1014.2 1009.9 0.0
26/08:30am 30.2 27.9 2.5 17 14.3 E 4 7 2 4 1014.1 1009.8 0.0
26/08:00am 26.4 25.1 4.2 24 11.5 CALM 0 0 0 0 1014.0 1009.7 0.0
26/07:30am 22.4 21.4 5.8 34 8.7 CALM 0 0 0 0 1013.9 1009.5 0.0
26/07:00am 19.8 18.3 3.1 33 8.1 CALM 0 4 0 2 1013.5 1009.2 0.0
26/06:30am 17.7 16.0 3.9 40 6.7 ESE 2 6 1 3 1013.2 1008.9 0.0
26/06:00am 17.8 15.3 3.7 39 6.8 E 6 6 3 3 1013.0 1008.7 0.0
26/05:30am 18.5 17.0 2.8 35 7.5 CALM 0 0 0 0 1012.7 1008.4 0.0
26/05:00am 17.9 16.5 3.4 38 7.0 CALM 0 0 0 0 1012.7 1008.4 0.0
26/04:30am 19.7 18.2 3.0 33 8.1 CALM 0 0 0 0 1012.7 1008.4 0.0
26/04:00am 18.7 17.2 2.9 35 7.6 CALM 0 0 0 0 1012.7 1008.4 0.0
26/03:30am 18.6 17.2 3.3 36 7.4 CALM 0 0 0 0 1012.8 1008.5 0.0
26/03:00am 20.1 18.6 2.9 32 8.4 CALM 0 0 0 0 1013.0 1008.7 0.0
26/02:30am 19.1 17.7 3.7 36 7.6 CALM 0 0 0 0 1013.0 1008.7 0.0
26/02:00am 20.0 17.3 2.8 32 8.3 WSW 6 6 3 3 1013.3 1009.0 0.0
26/01:30am 22.6 19.7 1.6 25 10.1 WSW 6 7 3 4 1013.5 1009.2 0.0
26/01:00am 23.1 21.4 2.0 25 10.3 CALM 0 0 0 0 1013.7 1009.4 0.0
26/12:30am 22.8 21.1 1.8 25 10.2 CALM 0 0 0 0 1014.0 1009.7 0.0
26/12:00am 23.0 21.6 3.5 28 9.8 CALM 0 0 0 0 1014.0 1009.7 0.0
 
Date/Time
CST
Temp
°C
App
Temp
°C
Dew
Point
°C
Rel
Hum
%
Delta-T
°C
Wind Press
QNH
hPa
Press
MSL
hPa
Rain since
9am
mm
Dir  Spd
km/h
Gust
km/h
Spd
kts
Gust
kts
25/11:30pm 25.2 23.4 1.3 21 11.7 CALM 0 0 0 0 1014.1 1009.8 0.0
25/11:00pm 23.3 20.5 2.2 25 10.4 NE 6 9 3 5 1014.1 1009.8 0.0
25/10:30pm 26.2 23.7 1.5 20 12.2 NE 4 6 2 3 1014.1 1009.8 0.0
25/10:00pm 25.6 22.6 1.7 21 11.8 NE 7 9 4 5 1014.1 1009.8 0.0
25/09:30pm 27.3 23.7 0.9 18 13.0 NE 9 11 5 6 1014.0 1009.7 0.0
25/09:00pm 29.0 25.3 -0.2 15 14.3 E 9 13 5 7 1013.7 1009.4 0.0
25/08:30pm 32.0 26.3 -0.9 12 16.2 ESE 19 24 10 13 1013.3 1009.0 0.0
25/08:00pm 31.4 26.7 0.7 14 15.5 ESE 15 20 8 11 1013.0 1008.7 0.0
25/07:30pm 31.6 27.4 1.8 15 15.3 ESE 13 17 7 9 1012.7 1008.4 0.0
25/07:00pm 32.4 28.3 2.5 15 15.6 ESE 13 22 7 12 1012.1 1007.8 0.0
25/06:30pm 34.2 29.5 2.9 14 16.6 ESE 17 24 9 13 1011.7 1007.4 0.0
25/06:00pm 35.4 30.3 2.8 13 17.4 ESE 19 28 10 15 1011.3 1006.9 0.0
25/05:30pm 36.0 30.5 2.1 12 18.0 ESE 20 30 11 16 1011.2 1006.8 0.0
25/05:00pm 36.8 31.5 2.8 12 18.3 ESE 20 37 11 20 1011.0 1006.6 0.0
25/04:30pm 36.8 30.7 2.8 12 18.3 E 24 33 13 18 1011.1 1006.7 0.0
25/04:00pm 37.2 31.9 3.1 12 18.5 ESE 20 37 11 20 1011.0 1006.6 0.0
25/03:30pm 37.5 31.5 3.3 12 18.6 E 24 33 13 18 1011.2 1006.8 0.0
25/03:00pm 37.8 32.8 3.5 12 18.7 E 19 32 10 17 1011.3 1006.9 0.0
25/02:30pm 37.5 33.4 4.4 13 18.3 E 15 28 8 15 1011.6 1007.3 0.0
25/02:00pm 37.4 32.6 4.4 13 18.3 E 19 28 10 15 1011.9 1007.6 0.0
25/01:30pm 36.5 30.9 3.7 13 17.9 E 22 32 12 17 1012.5 1008.1 0.0
25/01:00pm 36.7 33.1 4.9 14 17.7 ENE 13 24 7 13 1012.9 1008.6 0.0
25/12:30pm 35.3 30.5 4.8 15 16.8 NE 19 32 10 17 1013.5 1009.2 0.0
25/12:00pm 35.2 32.1 5.6 16 16.5 N 11 20 6 11 1014.2 1009.9 0.0
25/11:30am 33.7 29.4 5.3 17 15.6 NNE 17 30 9 16 1014.6 1010.3 0.0
25/11:00am 33.5 29.5 5.1 17 15.6 NNE 15 22 8 12 1014.7 1010.4 0.0
25/10:30am 32.3 27.6 5.0 18 14.8 NNE 19 28 10 15 1015.0 1010.7 0.0
25/10:00am 31.4 26.8 5.8 20 14.0 NNE 19 26 10 14 1015.1 1010.8 0.0
25/09:30am 30.3 26.4 6.9 23 13.0 N 17 24 9 13 1015.2 1011.0 0.0
25/09:00am 29.7 26.5 7.0 24 12.6 N 13 17 7 9 1015.2 1011.0 0.0
25/08:30am 28.5 26.0 6.6 25 12.0 NNE 9 17 5 9 1015.0 1010.7 0.0
25/08:00am 26.8 25.9 6.2 27 11.1 CALM 0 0 0 0 1014.7 1010.4 0.0
25/07:30am 22.3 21.4 7.7 39 7.9 E 2 6 1 3 1014.6 1010.3 0.0
25/07:00am 20.4 18.3 5.6 38 7.6 ENE 6 7 3 4 1014.5 1010.2 0.0
25/06:30am 22.7 19.9 5.2 32 9.0 E 9 11 5 6 1014.3 1010.0 0.0
25/06:00am 23.2 20.4 5.2 31 9.3 E 9 11 5 6 1014.2 1009.9 0.0
25/05:30am 23.2 20.0 5.2 31 9.3 E 11 13 6 7 1013.9 1009.5 0.0
25/05:00am 23.7 20.9 5.1 30 9.7 E 9 13 5 7 1013.7 1009.4 0.0
25/04:30am 23.7 20.9 5.1 30 9.7 E 9 11 5 6 1013.4 1009.1 0.0
25/04:00am 24.0 20.9 5.4 30 9.7 ESE 11 13 6 7 1013.4 1009.1 0.0
25/03:30am 24.5 21.0 5.3 29 10.1 ESE 13 13 7 7 1013.3 1009.0 0.0
25/03:00am 24.7 21.2 5.5 29 10.1 E 13 15 7 8 1013.3 1009.0 0.0

Other Formats:

Comma delimited format used in spreadsheet applications
http://www.bom.gov.au/fwo/IDD60801/IDD60801.94474.axf

JavaScript Object Notation format (JSON) in row-major order
http://www.bom.gov.au/fwo/IDD60801/IDD60801.94474.json